Urb Riberas de Honduras, Puerto Rico
Current Conditions -  °F | °C
As of 10:56 PM on Monday 22 Dec 2014 (Local Time) from TJSJ Reporting Station
Broken Clouds Broken Clouds  
Wind Chill: 76°   Ceiling: 5000
Heat Index: 76°   Visibility: 10mi
Dew Point: 73°   Wind: 6mph
Humidity: 91%   Direction: 100°E
Pressure: 30.04"   Gusts: NA
Location:  18.3866°N, 66.1135°W
Report Text: TJSJ 230256Z 10005KT 10SM SCT021 BKN050 24/23 A3004 RMK AO2 RAB21E50 SLP171 VCSH W P0001 60001 T02440228 51009
Loading
Personal Weather Stations






























Interactive Weather Map New forecast layout! Learn more

10-Day Weather Forecast

Advertisements
Track Severe Weather on mobile